Skip to main content.
Our real time weather data display below is updated continuously via our 24/7 live data feed.
 TIME   TEMPERATURE   WINDSPEED   DIRECTION   HUMIDITY   BAROMETER   RAINFALL 
9:35 26.7°C (80.1°F) 0.0 kmh (0.0 mph) WSW 78% 1017.2hPa (30.04 inHg) 0.0mm (0.00 in.)
8:35 26.4°C (79.5 °F) 0.0 kmh (0.0 mph) SW 86% 1016.8hPa (30.03 inHg) 0.0mm (0.00 in.)
7:35 24.8°C (76.6 °F) 0.0 kmh (0.0 mph) SW 90% 1016.6hPa (30.02 inHg) 0.0mm (0.00 in.)
6:35 24.4°C (75.9 °F) 0.0 kmh (0.0 mph) WSW 90% 1016.8hPa (30.03 inHg) 0.0mm (0.00 in.)
5:35 24.4°C (75.9 °F) 0.0 kmh (0.0 mph) WSW 90% 1016.3hPa (30.01 inHg) 0.0mm (0.00 in.)
4:35 24.7°C (76.5 °F) 0.0 kmh (0.0 mph) WSW 88% 1015.8hPa (30.00 inHg) 0.0mm (0.00 in.)
3:35 24.8°C (76.6 °F) 0.0 kmh (0.0 mph) WSW 87% 1016.4hPa (30.01 inHg) 0.0mm (0.00 in.)
2:35 24.9°C (76.8 °F) 0.0 kmh (0.0 mph) WSW 85% 1016.9hPa (30.03 inHg) 0.0mm (0.00 in.)
1:35 25.2°C (77.4 °F) 0.0 kmh (0.0 mph) WSW 83% 1017.2hPa (30.04 inHg) 0.0mm (0.00 in.)
12:35 25.4°C (77.7 °F) 0.0 kmh (0.0 mph) WSW 83% 1017.4hPa (30.04 inHg) 0.0mm (0.00 in.)
11:35 25.6°C (78.1 °F) 0.0 kmh (0.0 mph) WSW 82% 1017.9hPa (30.06 inHg) 0.0mm (0.00 in.)
10:35 25.8°C (78.4 °F) 0.0 kmh (0.0 mph) WSW 81% 1017.7hPa (30.05 inHg) 0.0mm (0.00 in.)
9:35 26.0°C (78.8 °F) 0.0 kmh (0.0 mph) SW 79% 1017.5hPa (30.05 inHg) 0.0mm (0.00 in.)
8:35 26.2°C (79.2 °F) 0.0 kmh (0.0 mph) SW 77% 1017.5hPa (30.05 inHg) 0.0mm (0.00 in.)
7:35 26.7°C (80.1 °F) 0.0 kmh (0.0 mph) SW 74% 1017.0hPa (30.03 inHg) 0.0mm (0.00 in.)
6:35 27.3°C (81.1 °F) 0.0 kmh (0.0 mph) SW 70% 1016.7hPa (30.02 inHg) 0.0mm (0.00 in.)
5:35 28.9°C (84.0 °F) 1.9 kmh (1.2 mph) SW 64% 1016.5hPa (30.02 inHg) 0.0mm (0.00 in.)
4:35 29.1°C (84.4 °F) 0.0 kmh (0.0 mph) SW 64% 1016.9hPa (30.03 inHg) 0.0mm (0.00 in.)
3:35 27.8°C (82.0 °F) 0.0 kmh (0.0 mph) E 71% 1017.2hPa (30.04 inHg) 0.0mm (0.00 in.)
2:35 30.3°C (86.5 °F) 1.9 kmh (1.2 mph) WSW 62% 1017.3hPa (30.04 inHg) 0.0mm (0.00 in.)
1:35 28.8°C (83.8 °F) 0.0 kmh (0.0 mph) WSW 67% 1017.9hPa (30.06 inHg) 0.0mm (0.00 in.)
12:35 29.6°C (85.3 °F) 0.0 kmh (0.0 mph) SW 65% 1017.8hPa (30.06 inHg) 0.0mm (0.00 in.)
11:35 27.6°C (81.7 °F) 0.0 kmh (0.0 mph) NW 73% 1018.0hPa (30.06 inHg) 0.0mm (0.00 in.)
10:35 28.7°C (83.7 °F) 0.0 kmh (0.0 mph) WSW 68% 1018.4hPa (30.07 inHg) 0.0mm (0.00 in.)